createdAt,value
2023-02-28T00:01:07.283Z,3.65
2023-02-28T00:03:36.209Z,5.20
2023-02-28T00:06:08.591Z,9.80
2023-02-28T00:08:35.688Z,4.38
2023-02-28T00:11:08.665Z,3.10
2023-02-28T00:13:40.590Z,6.50
2023-02-28T00:16:14.086Z,3.17
2023-02-28T00:18:41.898Z,4.40
2023-02-28T00:21:09.536Z,3.85
2023-02-28T00:23:36.660Z,4.53
2023-02-28T00:26:03.903Z,4.65
2023-02-28T00:28:30.941Z,4.20
2023-02-28T00:31:01.028Z,7.85
2023-02-28T00:33:29.623Z,4.22
2023-02-28T00:36:05.106Z,6.22
2023-02-28T00:38:32.596Z,2.78
2023-02-28T00:41:05.436Z,5.30
2023-02-28T00:43:34.905Z,3.38
2023-02-28T00:46:02.543Z,6.22
2023-02-28T00:48:31.357Z,6.35
2023-02-28T00:50:58.356Z,6.60
2023-02-28T00:53:26.216Z,5.80
2023-02-28T00:55:53.293Z,2.30
2023-02-28T00:58:20.452Z,12.05
2023-02-28T01:00:49.762Z,4.80
2023-02-28T01:03:18.733Z,6.45
2023-02-28T01:05:46.797Z,3.65
2023-02-28T01:08:14.825Z,7.10
2023-02-28T01:10:42.603Z,5.78
2023-02-28T01:13:09.610Z,4.90
2023-02-28T01:15:40.069Z,6.05
2023-02-28T01:18:07.045Z,3.72
2023-02-28T01:20:34.202Z,2.95
2023-02-28T01:23:02.228Z,4.32
2023-02-28T01:25:29.439Z,5.00
2023-02-28T01:27:56.627Z,8.48
2023-02-28T01:30:23.644Z,5.50
2023-02-28T01:32:52.527Z,5.93
2023-02-28T01:35:19.561Z,3.38
2023-02-28T01:37:46.723Z,5.95
2023-02-28T01:40:14.349Z,5.28
2023-02-28T01:42:41.371Z,3.72
2023-02-28T01:45:36.583Z,5.32
2023-02-28T01:48:07.579Z,2.80
2023-02-28T01:50:39.254Z,2.33
2023-02-28T01:53:11.367Z,2.63
2023-02-28T01:55:39.186Z,1.50
2023-02-28T01:58:08.107Z,3.90
2023-02-28T02:00:35.760Z,2.38
2023-02-28T02:03:11.707Z,5.75
2023-02-28T02:05:40.381Z,5.05
2023-02-28T02:08:14.434Z,6.93
2023-02-28T02:10:47.378Z,2.88
2023-02-28T02:13:34.994Z,3.08
2023-02-28T02:16:32.400Z,6.03
2023-02-28T02:19:24.279Z,3.03
2023-02-28T02:22:08.334Z,2.40
2023-02-28T02:25:09.453Z,4.88
2023-02-28T02:28:09.360Z,3.08
2023-02-28T02:31:01.923Z,3.05
2023-02-28T02:33:50.672Z,2.20
2023-02-28T02:36:27.278Z,2.63
2023-02-28T02:39:05.914Z,3.88
2023-02-28T02:41:50.260Z,2.22
2023-02-28T02:44:46.626Z,2.92
2023-02-28T02:47:18.392Z,4.72
2023-02-28T02:49:52.686Z,2.67
2023-02-28T02:52:25.947Z,2.05
2023-02-28T02:54:57.515Z,3.00
2023-02-28T02:57:31.791Z,2.80
2023-02-28T03:00:00.917Z,2.58
2023-02-28T03:02:34.877Z,4.32
2023-02-28T03:05:07.407Z,3.28
2023-02-28T03:10:02.189Z,4.65
2023-02-28T03:12:40.981Z,6.13
2023-02-28T03:15:12.683Z,3.60
2023-02-28T03:17:59.558Z,5.72
2023-02-28T03:20:41.621Z,4.00
2023-02-28T03:23:17.568Z,4.15
2023-02-28T03:26:07.064Z,2.85
2023-02-28T03:28:52.724Z,6.78
2023-02-28T03:31:27.736Z,5.13
2023-02-28T03:34:02.465Z,3.42
2023-02-28T03:36:44.703Z,2.50
2023-02-28T03:39:23.205Z,1.83
2023-02-28T03:41:56.086Z,2.83
2023-02-28T03:44:28.664Z,3.85
2023-02-28T03:47:10.658Z,2.58
2023-02-28T03:49:46.587Z,2.70
2023-02-28T03:52:13.670Z,2.42
2023-02-28T03:54:47.632Z,2.90
2023-02-28T03:57:38.275Z,5.30
2023-02-28T04:00:19.235Z,2.30
2023-02-28T04:02:46.360Z,4.05
2023-02-28T04:05:13.492Z,6.53
2023-02-28T04:07:40.501Z,8.40
2023-02-28T04:10:08.042Z,2.58
2023-02-28T04:12:35.050Z,4.03
2023-02-28T04:15:02.040Z,2.80
2023-02-28T04:17:29.032Z,8.38
2023-02-28T04:19:58.134Z,2.97
2023-02-28T04:22:28.213Z,2.83
2023-02-28T04:24:55.396Z,2.92
2023-02-28T04:27:22.873Z,7.88
2023-02-28T04:29:49.857Z,2.47
2023-02-28T04:32:16.951Z,3.05
2023-02-28T04:34:44.064Z,5.38
2023-02-28T04:37:13.692Z,5.13
2023-02-28T04:39:42.727Z,8.52
2023-02-28T04:42:10.954Z,8.50
2023-02-28T04:44:38.084Z,4.45
2023-02-28T04:47:05.163Z,4.88
2023-02-28T04:49:32.274Z,4.95
2023-02-28T04:51:59.271Z,4.30
2023-02-28T04:54:26.343Z,2.05
2023-02-28T04:56:53.456Z,7.10
2023-02-28T04:59:20.438Z,4.00
2023-02-28T05:01:49.209Z,8.75
2023-02-28T05:04:16.289Z,4.50
2023-02-28T05:06:43.327Z,2.50
2023-02-28T05:09:12.405Z,3.60
2023-02-28T05:11:40.457Z,3.28
2023-02-28T05:14:12.077Z,6.38
2023-02-28T05:16:39.695Z,3.97
2023-02-28T05:19:06.857Z,3.17
2023-02-28T05:21:42.669Z,4.35
2023-02-28T05:24:13.224Z,7.95
2023-02-28T05:26:42.571Z,7.18
2023-02-28T05:29:10.725Z,4.72
2023-02-28T05:31:37.996Z,3.47
2023-02-28T05:34:05.208Z,10.38
2023-02-28T05:36:33.177Z,4.30
2023-02-28T05:39:00.264Z,2.90
2023-02-28T05:41:27.938Z,3.28
2023-02-28T05:43:55.366Z,4.35
2023-02-28T05:46:22.484Z,9.20
2023-02-28T05:48:50.038Z,4.30
2023-02-28T05:51:18.006Z,3.15
2023-02-28T05:53:45.363Z,7.05
2023-02-28T05:56:12.465Z,9.43
2023-02-28T05:58:39.603Z,9.65
2023-02-28T06:01:40.244Z,7.85
2023-02-28T06:04:14.306Z,6.63
2023-02-28T06:06:50.279Z,6.93
2023-02-28T06:09:18.516Z,9.00
2023-02-28T06:11:45.608Z,6.07
2023-02-28T06:14:18.230Z,6.25
2023-02-28T06:16:45.727Z,7.70
2023-02-28T06:19:13.562Z,6.63
2023-02-28T06:21:40.600Z,11.90
2023-02-28T06:24:08.465Z,11.32
2023-02-28T06:26:35.612Z,17.50
2023-02-28T06:29:02.970Z,19.73
2023-02-28T06:31:30.601Z,11.00
2023-02-28T06:33:57.943Z,12.50
2023-02-28T06:36:24.968Z,13.27
2023-02-28T06:38:55.584Z,14.07
2023-02-28T06:41:24.948Z,15.10
2023-02-28T06:43:52.821Z,15.10
2023-02-28T06:46:20.279Z,13.77
2023-02-28T06:48:47.978Z,9.55
2023-02-28T06:51:17.720Z,14.40
2023-02-28T06:53:44.845Z,6.53
2023-02-28T06:56:14.931Z,12.23
2023-02-28T06:58:42.929Z,14.38
2023-02-28T07:01:10.058Z,14.63
2023-02-28T07:03:37.617Z,22.33
2023-02-28T07:06:06.212Z,27.17
2023-02-28T07:08:34.246Z,37.63
2023-02-28T07:11:01.245Z,13.60
2023-02-28T07:13:28.354Z,8.35
2023-02-28T07:16:05.723Z,10.23
2023-02-28T07:18:33.320Z,4.97
2023-02-28T07:21:03.643Z,5.22
2023-02-28T07:23:31.021Z,2.88
2023-02-28T07:25:58.006Z,4.78
2023-02-28T07:28:25.948Z,3.72
2023-02-28T07:30:53.106Z,8.25
2023-02-28T07:33:20.165Z,2.97
2023-02-28T07:35:47.325Z,4.65
2023-02-28T07:38:14.779Z,8.43
2023-02-28T07:40:41.888Z,2.08
2023-02-28T07:43:09.051Z,0.90
2023-02-28T07:45:36.055Z,5.20
2023-02-28T07:48:03.477Z,6.10
2023-02-28T07:50:31.703Z,8.65
2023-02-28T07:53:01.927Z,3.97
2023-02-28T07:55:28.935Z,2.30
2023-02-28T07:57:57.872Z,2.70
2023-02-28T08:00:25.600Z,2.03
2023-02-28T08:02:52.606Z,5.25
2023-02-28T08:05:22.055Z,3.83
2023-02-28T08:07:50.985Z,3.55
2023-02-28T08:10:18.084Z,0.80
2023-02-28T08:12:45.136Z,3.08
2023-02-28T08:15:12.270Z,3.22
2023-02-28T08:17:39.921Z,3.08
2023-02-28T08:20:07.842Z,3.83
2023-02-28T08:22:34.849Z,2.15
2023-02-28T08:25:01.836Z,4.97
2023-02-28T08:27:28.839Z,2.10
2023-02-28T08:29:55.855Z,1.95
2023-02-28T08:32:29.812Z,2.05
2023-02-28T08:34:57.607Z,2.10
2023-02-28T08:37:25.311Z,5.35
2023-02-28T08:39:55.654Z,3.03
2023-02-28T08:42:24.722Z,4.35
2023-02-28T08:44:51.808Z,2.15
2023-02-28T08:47:19.065Z,1.42
2023-02-28T08:49:46.055Z,10.95
2023-02-28T08:52:13.092Z,8.50
2023-02-28T08:54:40.083Z,5.05
2023-02-28T08:57:07.166Z,3.53
2023-02-28T08:59:34.308Z,4.43
2023-02-28T09:02:01.395Z,2.58
2023-02-28T09:04:31.587Z,1.95
2023-02-28T09:06:58.732Z,9.05
2023-02-28T09:09:25.717Z,6.18
2023-02-28T09:11:52.733Z,9.13
2023-02-28T09:14:20.679Z,4.07
2023-02-28T09:16:48.216Z,8.52
2023-02-28T09:19:15.495Z,2.35
2023-02-28T09:21:42.551Z,0.93
2023-02-28T09:24:09.546Z,2.38
2023-02-28T09:26:42.802Z,4.82
2023-02-28T09:29:15.512Z,5.63
2023-02-28T09:31:42.544Z,3.28
2023-02-28T09:34:09.757Z,3.90
2023-02-28T09:36:45.225Z,2.13
2023-02-28T09:39:15.384Z,3.10
2023-02-28T09:41:51.941Z,3.00
2023-02-28T09:44:42.311Z,5.43
2023-02-28T09:47:31.661Z,5.55
2023-02-28T09:50:12.953Z,6.95
2023-02-28T09:52:40.364Z,1.63
2023-02-28T09:55:16.227Z,4.22
2023-02-28T09:57:43.517Z,2.33
2023-02-28T10:00:18.208Z,3.70
2023-02-28T10:02:59.151Z,2.92
2023-02-28T10:05:34.158Z,6.43
2023-02-28T10:08:15.188Z,7.95
2023-02-28T10:10:46.311Z,2.97
2023-02-28T10:13:37.311Z,5.50
2023-02-28T10:16:19.910Z,2.80
2023-02-28T10:18:52.526Z,6.00
2023-02-28T10:21:29.117Z,4.50
2023-02-28T10:24:04.698Z,2.60
2023-02-28T10:26:33.897Z,3.72
2023-02-28T10:29:03.636Z,2.40
2023-02-28T10:31:30.773Z,7.22
2023-02-28T10:33:57.854Z,13.52
2023-02-28T10:36:24.895Z,1.73
2023-02-28T10:38:52.195Z,3.80
2023-02-28T10:41:36.958Z,9.68
2023-02-28T10:44:14.884Z,7.00
2023-02-28T10:46:43.314Z,6.32
2023-02-28T10:49:21.169Z,3.95
2023-02-28T10:51:52.434Z,3.38
2023-02-28T10:54:24.246Z,2.75
2023-02-28T10:57:17.175Z,4.20
2023-02-28T11:02:36.737Z,4.38
2023-02-28T11:05:25.107Z,2.70
2023-02-28T11:07:57.866Z,2.15
2023-02-28T11:10:29.965Z,2.88
2023-02-28T11:13:00.547Z,4.43
2023-02-28T11:15:31.835Z,4.95
2023-02-28T11:18:01.531Z,8.93
2023-02-28T11:20:33.693Z,15.32
2023-02-28T11:23:04.295Z,17.98
2023-02-28T11:25:34.272Z,6.78
2023-02-28T11:28:07.715Z,5.80
2023-02-28T11:30:36.772Z,3.05
2023-02-28T11:33:41.449Z,1.77
2023-02-28T11:36:21.639Z,3.47
2023-02-28T11:38:50.506Z,4.97
2023-02-28T11:41:26.519Z,16.70
2023-02-28T11:43:59.808Z,3.60
2023-02-28T11:46:35.054Z,14.00
2023-02-28T11:49:17.020Z,10.30
2023-02-28T11:51:55.118Z,3.75
2023-02-28T11:54:25.715Z,1.77
2023-02-28T11:56:58.222Z,4.47
2023-02-28T12:02:25.341Z,4.15
2023-02-28T12:05:14.179Z,9.18
2023-02-28T12:08:03.764Z,4.30
2023-02-28T12:10:41.948Z,4.50
2023-02-28T12:13:32.571Z,7.15
2023-02-28T12:16:21.059Z,4.63
2023-02-28T12:19:09.776Z,5.60
2023-02-28T12:22:05.651Z,2.97
2023-02-28T12:24:50.704Z,14.63
2023-02-28T12:27:22.860Z,7.30
2023-02-28T12:32:39.652Z,12.65
2023-02-28T12:35:09.565Z,6.28
2023-02-28T12:38:20.198Z,3.22
2023-02-28T12:41:31.755Z,5.35
2023-02-28T12:44:06.795Z,4.13
2023-02-28T12:46:42.496Z,5.95
2023-02-28T12:49:17.122Z,6.00
2023-02-28T12:51:46.713Z,6.55
2023-02-28T12:54:35.606Z,6.63
2023-02-28T12:57:29.510Z,3.30
2023-02-28T13:00:02.561Z,2.70
2023-02-28T13:02:41.847Z,4.10
2023-02-28T13:05:27.486Z,6.25
2023-02-28T13:08:20.054Z,3.50
2023-02-28T13:10:55.347Z,19.15
2023-02-28T13:13:25.497Z,4.60
2023-02-28T13:16:08.521Z,7.10
2023-02-28T13:18:43.154Z,2.55
2023-02-28T13:21:32.002Z,3.88
2023-02-28T13:24:02.326Z,6.47
2023-02-28T13:26:32.200Z,5.60
2023-02-28T13:29:02.464Z,4.65
2023-02-28T13:31:29.859Z,3.33
2023-02-28T13:33:58.340Z,6.55
2023-02-28T13:36:32.969Z,8.35
2023-02-28T13:39:23.981Z,4.57
2023-02-28T13:41:51.100Z,6.78
2023-02-28T13:44:20.052Z,5.28
2023-02-28T13:46:50.226Z,9.80
2023-02-28T13:49:23.531Z,6.20
2023-02-28T13:51:53.157Z,9.32
2023-02-28T13:54:31.641Z,9.00
2023-02-28T13:57:01.753Z,4.15
2023-02-28T13:59:54.653Z,3.25
2023-02-28T14:07:54.599Z,4.32
2023-02-28T14:10:28.665Z,5.45
2023-02-28T14:12:57.130Z,4.50
2023-02-28T14:15:39.931Z,9.20
2023-02-28T14:20:56.358Z,6.10
2023-02-28T14:23:29.346Z,7.50
2023-02-28T14:26:18.091Z,5.93
2023-02-28T14:28:45.110Z,5.25
2023-02-28T14:31:24.408Z,3.47
2023-02-28T14:34:20.661Z,7.78
2023-02-28T14:36:48.678Z,6.60
2023-02-28T14:39:19.838Z,4.32
2023-02-28T14:41:47.495Z,3.85
2023-02-28T14:44:23.873Z,5.15
2023-02-28T14:46:55.439Z,10.30
2023-02-28T14:49:35.264Z,5.72
2023-02-28T14:52:16.948Z,7.10
2023-02-28T14:54:45.513Z,4.68
2023-02-28T14:57:30.492Z,4.63
2023-02-28T15:14:03.273Z,9.73
2023-02-28T15:16:35.217Z,6.80
2023-02-28T15:19:07.607Z,6.78
2023-02-28T15:26:29.579Z,4.65
2023-02-28T15:29:05.312Z,6.05
2023-02-28T15:31:53.982Z,6.82
2023-02-28T15:34:45.896Z,6.57
2023-02-28T15:38:06.589Z,5.05
2023-02-28T15:40:38.387Z,5.63
2023-02-28T15:43:19.213Z,3.10
2023-02-28T15:45:53.793Z,4.82
2023-02-28T15:48:22.746Z,8.88
2023-02-28T15:50:57.163Z,4.75
2023-02-28T15:53:34.600Z,6.10
2023-02-28T15:56:05.388Z,3.95
2023-02-28T15:58:33.872Z,6.85
2023-02-28T16:01:27.072Z,7.32
2023-02-28T16:03:57.410Z,7.90
2023-02-28T16:06:32.868Z,5.97
2023-02-28T16:09:00.117Z,6.50
2023-02-28T16:11:27.427Z,5.15
2023-02-28T16:13:55.002Z,17.95
2023-02-28T16:16:25.896Z,6.97
2023-02-28T16:18:53.505Z,11.75
2023-02-28T16:21:20.497Z,5.45
2023-02-28T16:23:47.557Z,5.63
2023-02-28T16:26:22.871Z,7.22
2023-02-28T16:28:50.768Z,7.22
2023-02-28T16:31:18.848Z,5.32
2023-02-28T16:33:46.397Z,6.10
2023-02-28T16:36:21.921Z,5.53
2023-02-28T16:38:49.011Z,4.05
2023-02-28T16:41:21.540Z,13.13
2023-02-28T16:46:17.557Z,7.65
2023-02-28T16:48:45.699Z,7.38
2023-02-28T16:51:14.678Z,5.80
2023-02-28T16:53:42.728Z,4.05
2023-02-28T16:56:24.547Z,6.15
2023-02-28T16:58:52.764Z,8.27
2023-02-28T17:05:08.232Z,8.05
2023-02-28T17:07:45.516Z,8.65
2023-02-28T17:10:24.480Z,7.38
2023-02-28T17:12:52.778Z,11.48
2023-02-28T17:15:57.214Z,5.82
2023-02-28T17:18:25.389Z,7.25
2023-02-28T17:20:52.398Z,12.80
2023-02-28T17:23:19.475Z,17.25
2023-02-28T17:25:55.704Z,15.80
2023-02-28T17:28:28.341Z,14.18
2023-02-28T17:30:58.609Z,17.30
2023-02-28T17:33:26.696Z,11.80
2023-02-28T17:36:00.412Z,8.63
2023-02-28T17:38:27.463Z,12.10
2023-02-28T17:40:58.050Z,13.27
2023-02-28T17:43:26.965Z,20.25
2023-02-28T17:45:54.758Z,14.98
2023-02-28T17:48:22.012Z,13.00
2023-02-28T17:50:49.104Z,29.17
2023-02-28T17:53:16.202Z,13.05
2023-02-28T17:55:43.359Z,7.78
2023-02-28T17:58:37.234Z,7.80
2023-02-28T18:01:33.453Z,9.18
2023-02-28T18:04:00.421Z,6.18
2023-02-28T18:06:47.152Z,11.57
2023-02-28T18:09:17.108Z,7.28
2023-02-28T18:11:48.994Z,10.57
2023-02-28T18:14:17.578Z,12.70
2023-02-28T18:16:45.787Z,11.68
2023-02-28T18:19:17.549Z,13.20
2023-02-28T18:21:46.538Z,11.32
2023-02-28T18:24:13.997Z,12.25
2023-02-28T18:26:41.782Z,17.63
2023-02-28T18:29:13.623Z,16.27
2023-02-28T18:31:40.683Z,18.38
2023-02-28T18:34:07.733Z,12.75
2023-02-28T18:36:34.821Z,12.23
2023-02-28T18:39:02.160Z,18.85
2023-02-28T18:41:29.453Z,6.55
2023-02-28T18:43:56.524Z,12.88
2023-02-28T18:46:25.199Z,12.18
2023-02-28T18:48:52.303Z,11.15
2023-02-28T18:51:23.103Z,11.38
2023-02-28T18:53:51.794Z,11.82
2023-02-28T18:56:21.194Z,15.57
2023-02-28T18:58:48.209Z,12.20
2023-02-28T19:05:34.222Z,17.48
2023-02-28T19:08:02.130Z,17.77
2023-02-28T19:10:29.260Z,23.38
2023-02-28T19:12:56.338Z,20.45
2023-02-28T19:15:23.341Z,30.27
2023-02-28T19:17:50.489Z,24.52
2023-02-28T19:20:17.729Z,17.85
2023-02-28T19:22:44.737Z,19.70
2023-02-28T19:25:11.897Z,20.27
2023-02-28T19:27:39.110Z,21.35
2023-02-28T19:30:07.449Z,21.48
2023-02-28T19:32:34.953Z,14.57
2023-02-28T19:35:02.709Z,16.10
2023-02-28T19:37:30.106Z,14.32
2023-02-28T19:39:59.541Z,16.55
2023-02-28T19:42:29.946Z,21.10
2023-02-28T19:44:56.916Z,15.88
2023-02-28T19:47:23.952Z,22.33
2023-02-28T19:49:54.842Z,16.73
2023-02-28T19:52:23.414Z,19.10
2023-02-28T19:54:50.963Z,17.48
2023-02-28T19:57:18.567Z,15.82
2023-02-28T19:59:45.715Z,22.17
2023-02-28T20:02:18.409Z,30.25
2023-02-28T20:04:50.468Z,25.10
2023-02-28T20:07:20.296Z,20.40
2023-02-28T20:13:53.856Z,22.23
2023-02-28T20:20:37.409Z,19.65
2023-02-28T20:23:05.442Z,21.45
2023-02-28T20:25:33.897Z,20.60
2023-02-28T20:28:00.947Z,20.48
2023-02-28T20:30:27.995Z,27.25
2023-02-28T20:32:55.042Z,26.17
2023-02-28T20:39:29.049Z,24.00
2023-02-28T20:41:56.168Z,34.58
2023-02-28T20:44:23.290Z,23.90
2023-02-28T20:46:50.404Z,35.47
2023-02-28T20:49:17.488Z,22.85
2023-02-28T20:51:44.585Z,22.25
2023-02-28T20:54:12.063Z,22.65
2023-02-28T20:56:39.400Z,21.58
2023-02-28T20:59:06.452Z,21.73
2023-02-28T21:10:26.909Z,23.92
2023-02-28T21:12:57.683Z,21.80
2023-02-28T21:15:26.024Z,21.23
2023-02-28T21:17:53.115Z,25.23
2023-02-28T21:20:23.031Z,27.33
2023-02-28T21:22:50.992Z,28.42
2023-02-28T21:25:18.042Z,25.30
2023-02-28T21:27:45.058Z,26.60
2023-02-28T21:30:12.209Z,30.88
2023-02-28T21:32:39.256Z,27.98
2023-02-28T21:35:07.331Z,24.92
2023-02-28T21:37:38.189Z,24.95
2023-02-28T21:40:06.232Z,23.92
2023-02-28T21:42:33.300Z,29.25
2023-02-28T21:45:01.555Z,26.65
2023-02-28T21:47:30.020Z,20.38
2023-02-28T21:49:57.014Z,23.23
2023-02-28T21:52:24.035Z,26.98
2023-02-28T21:54:51.083Z,28.05
2023-02-28T21:57:18.177Z,23.15
2023-02-28T21:59:45.374Z,29.38
2023-02-28T22:02:12.972Z,28.33
2023-02-28T22:04:40.019Z,28.42
2023-02-28T22:07:07.073Z,30.10
2023-02-28T22:09:34.155Z,28.83
2023-02-28T22:12:01.216Z,28.20
2023-02-28T22:14:28.237Z,26.30
2023-02-28T22:16:56.919Z,28.63
2023-02-28T22:19:24.414Z,29.73
2023-02-28T22:21:53.607Z,27.48
2023-02-28T22:24:24.055Z,32.63
2023-02-28T22:26:52.041Z,27.80
2023-02-28T22:29:19.465Z,25.90
2023-02-28T22:31:46.604Z,31.58
2023-02-28T22:34:13.717Z,35.20
2023-02-28T22:36:42.467Z,28.40
2023-02-28T22:39:10.385Z,28.83
2023-02-28T22:41:38.179Z,34.80
2023-02-28T22:44:05.532Z,34.88
2023-02-28T22:46:34.617Z,34.45
2023-02-28T22:49:03.827Z,30.13
2023-02-28T22:51:31.513Z,29.83
2023-02-28T22:53:58.784Z,31.95
2023-02-28T22:56:28.401Z,36.22
2023-02-28T22:58:57.534Z,35.80
2023-02-28T23:01:26.194Z,36.13
2023-02-28T23:03:53.412Z,35.88
2023-02-28T23:06:23.319Z,44.65
2023-02-28T23:08:52.698Z,36.53
2023-02-28T23:11:26.664Z,40.90
2023-02-28T23:13:59.978Z,50.03
2023-02-28T23:16:48.291Z,39.03
2023-02-28T23:19:21.184Z,45.33
2023-02-28T23:21:48.478Z,36.63
2023-02-28T23:24:17.968Z,32.85
2023-02-28T23:26:47.457Z,41.15
2023-02-28T23:29:16.853Z,36.15
2023-02-28T23:31:44.379Z,32.60
2023-02-28T23:34:11.981Z,37.88
2023-02-28T23:36:43.495Z,30.95
2023-02-28T23:39:10.512Z,31.77
2023-02-28T23:41:37.539Z,35.00
2023-02-28T23:44:04.578Z,27.42
2023-02-28T23:46:31.909Z,33.65
2023-02-28T23:48:59.514Z,31.10
2023-02-28T23:51:26.528Z,29.63
2023-02-28T23:53:53.572Z,31.80
2023-02-28T23:56:22.680Z,35.85
2023-02-28T23:58:50.419Z,36.60
